Time;durP1;ratioP1;P1;durP2;ratioP2;P2;SDS_P1;SDS_P2;PMS_P1;PMS_P2;Temp;Humidity;BMP_temperature;BMP_pressure;BME280_temperature;BME280_humidity;BME280_pressure;Samples;Min_cycle;Max_cycle;Signal;HPM_P1;HPM_P2
2022/11/11 00:01:37;;;;;;;14.80;6.20;;;11.50;99.90;;;;;;6185687;23;20013;-88
2022/11/11 00:04:02;;;;;;;15.77;6.50;;;11.50;99.90;;;;;;6135998;23;20009;-88
2022/11/11 00:06:28;;;;;;;14.80;6.75;;;11.50;99.90;;;;;;6161061;23;20005;-89
2022/11/11 00:08:54;;;;;;;11.93;6.13;;;11.50;99.90;;;;;;6185693;23;20005;-88
2022/11/11 00:11:19;;;;;;;14.63;6.95;;;11.50;99.90;;;;;;6185280;23;20001;-84
2022/11/11 00:13:45;;;;;;;12.93;5.88;;;11.50;99.90;;;;;;6160055;23;20017;-84
2022/11/11 00:16:11;;;;;;;14.20;5.95;;;11.50;99.90;;;;;;6160115;23;20019;-84
2022/11/11 00:27:04;;;;;;;13.77;6.70;;;11.40;99.90;;;;;;6185755;23;20040;-84
2022/11/11 00:29:30;;;;;;;12.10;6.80;;;11.40;99.90;;;;;;6209694;23;20425;-84
2022/11/11 00:35:51;;;;;;;13.48;5.97;;;11.40;99.90;;;;;;6185260;23;20513;-84
2022/11/11 00:37:28;;;;;;;12.85;6.85;;;11.40;99.90;;;;;;6184620;23;20013;-84
2022/11/11 00:39:53;;;;;;;13.88;6.10;;;11.40;99.90;;;;;;6184200;23;20031;-84
2022/11/11 00:42:19;;;;;;;15.38;7.13;;;11.40;99.90;;;;;;6159644;23;20012;-84
2022/11/11 00:44:45;;;;;;;14.63;7.38;;;11.40;99.90;;;;;;6135301;23;20012;-85
2022/11/11 00:52:40;;;;;;;13.90;7.07;;;11.40;99.90;;;;;;6185401;23;20019;-85
2022/11/11 00:55:06;;;;;;;17.30;7.97;;;11.30;99.90;;;;;;6184692;23;20044;-85
2022/11/11 00:57:32;;;;;;;13.48;7.90;;;11.30;99.90;;;;;;6184476;23;20255;-85
2022/11/11 00:59:58;;;;;;;17.20;9.52;;;11.30;99.90;;;;;;6184764;23;20009;-84
2022/11/11 01:02:23;;;;;;;15.55;8.77;;;11.30;99.90;;;;;;6135025;23;20013;-84
2022/11/11 01:04:49;;;;;;;14.25;8.70;;;11.30;99.90;;;;;;6135001;23;20012;-84
2022/11/11 01:07:15;;;;;;;15.52;9.90;;;11.30;99.90;;;;;;6135085;23;20417;-83
2022/11/11 01:09:40;;;;;;;17.60;10.10;;;11.30;99.90;;;;;;6159598;23;20091;-84
2022/11/11 01:12:06;;;;;;;17.58;9.82;;;11.30;99.90;;;;;;6184369;23;20006;-84
2022/11/11 01:14:32;;;;;;;16.42;9.57;;;11.30;99.90;;;;;;6184393;23;20033;-84
2022/11/11 01:16:57;;;;;;;18.65;11.10;;;11.20;99.90;;;;;;6209696;23;20001;-87
2022/11/11 01:19:23;;;;;;;17.88;10.27;;;11.20;99.90;;;;;;6184765;23;20009;-89
2022/11/11 01:21:48;;;;;;;19.40;10.23;;;11.20;99.90;;;;;;6210223;23;20013;-88
2022/11/11 01:24:14;;;;;;;16.48;9.88;;;11.20;99.90;;;;;;6184945;23;20013;-87
2022/11/11 01:26:40;;;;;;;15.38;10.55;;;11.20;99.90;;;;;;6135820;23;20006;-88
2022/11/11 01:29:05;;;;;;;18.98;12.02;;;11.20;99.90;;;;;;6184787;23;20009;-88
2022/11/11 01:31:31;;;;;;;19.00;11.30;;;11.20;99.90;;;;;;6210765;23;20005;-88
2022/11/11 01:33:57;;;;;;;19.30;11.32;;;11.10;99.90;;;;;;6186931;23;20059;-84
2022/11/11 01:36:25;;;;;;;15.90;11.45;;;11.10;99.90;;;;;;6186370;23;20028;-84
2022/11/11 01:38:53;;;;;;;17.70;11.52;;;11.20;99.90;;;;;;6211167;23;20413;-84
2022/11/11 01:41:33;;;;;;;21.13;11.68;;;11.10;99.90;;;;;;6210888;23;20013;-84
2022/11/11 01:44:11;;;;;;;21.42;12.00;;;11.20;99.90;;;;;;6186264;23;20005;-84
2022/11/11 01:46:46;;;;;;;16.60;11.68;;;11.20;99.90;;;;;;6186409;23;20005;-84
2022/11/11 01:49:21;;;;;;;18.63;12.45;;;11.20;99.90;;;;;;6211077;23;20052;-84
2022/11/11 01:52:02;;;;;;;19.33;12.73;;;11.20;99.90;;;;;;6213259;23;20001;-89
2022/11/11 01:54:49;;;;;;;22.42;12.95;;;11.20;99.90;;;;;;6187851;23;20009;-89
2022/11/11 01:57:33;;;;;;;21.48;13.77;;;11.20;99.90;;;;;;6212607;23;20083;-89
2022/11/11 02:00:04;;;;;;;21.08;13.02;;;11.20;99.90;;;;;;6212111;23;20332;-88
2022/11/11 02:02:42;;;;;;;22.65;13.00;;;11.20;99.90;;;;;;6189077;23;20079;-90
2022/11/11 02:07:58;;;;;;;18.65;12.38;;;11.20;99.90;;;;;;6189777;23;20440;-88
2022/11/11 02:10:26;;;;;;;20.10;13.27;;;11.20;99.90;;;;;;6211822;23;20005;-88
2022/11/11 02:15:37;;;;;;;19.88;12.75;;;11.20;99.90;;;;;;6187058;23;20099;-89
2022/11/11 02:18:04;;;;;;;23.23;12.93;;;11.20;99.90;;;;;;6211638;23;20005;-88
2022/11/11 02:20:34;;;;;;;22.42;13.80;;;11.20;99.90;;;;;;6186912;23;20005;-88
2022/11/11 02:23:09;;;;;;;18.58;12.85;;;11.30;99.90;;;;;;6212155;23;20027;-85
2022/11/11 02:25:38;;;;;;;22.10;13.43;;;11.20;99.90;;;;;;6211184;23;20428;-85
2022/11/11 02:28:06;;;;;;;20.13;13.45;;;11.20;99.90;;;;;;6185681;23;20055;-85
2022/11/11 02:30:32;;;;;;;20.05;13.45;;;11.30;99.90;;;;;;6185962;23;20437;-85
2022/11/11 02:32:57;;;;;;;22.70;13.45;;;11.20;99.90;;;;;;6210993;23;20033;-86
2022/11/11 02:35:39;;;;;;;21.55;13.35;;;11.30;99.90;;;;;;6186009;23;20052;-85
2022/11/11 02:38:07;;;;;;;24.40;12.90;;;11.30;99.90;;;;;;6185793;23;20088;-85
2022/11/11 02:43:27;;;;;;;21.95;13.18;;;11.30;99.90;;;;;;6187417;23;20028;-89
2022/11/11 02:45:53;;;;;;;22.42;13.73;;;11.30;99.90;;;;;;6211535;23;20001;-89
2022/11/11 02:48:39;;;;;;;22.20;13.75;;;11.30;99.90;;;;;;6186121;23;20009;-89
2022/11/11 02:51:07;;;;;;;23.52;14.82;;;11.30;99.90;;;;;;6186399;23;20005;-90
2022/11/11 02:53:33;;;;;;;23.00;13.18;;;11.30;99.90;;;;;;6186781;23;20009;-89
2022/11/11 02:56:00;;;;;;;21.20;13.25;;;11.30;99.90;;;;;;6186044;23;20005;-90
2022/11/11 02:58:25;;;;;;;24.77;13.48;;;11.30;99.90;;;;;;6186479;23;20357;-86
2022/11/11 03:00:51;;;;;;;20.50;13.00;;;11.30;99.90;;;;;;6185466;23;20009;-85
2022/11/11 03:03:16;;;;;;;21.63;12.48;;;11.40;99.90;;;;;;6210357;23;20383;-85
2022/11/11 03:05:42;;;;;;;19.55;13.55;;;11.40;99.90;;;;;;6185803;23;20001;-86
2022/11/11 03:08:08;;;;;;;22.58;13.18;;;11.40;99.90;;;;;;6185446;23;20017;-86
2022/11/11 03:10:33;;;;;;;21.10;12.95;;;11.40;99.90;;;;;;6185613;23;20033;-85
2022/11/11 03:12:59;;;;;;;18.85;12.70;;;11.40;99.90;;;;;;6185853;23;20005;-86
2022/11/11 03:15:25;;;;;;;20.35;13.15;;;11.40;99.90;;;;;;6185615;23;20341;-85
2022/11/11 03:17:50;;;;;;;20.48;12.93;;;11.40;99.90;;;;;;6185411;23;20009;-85
2022/11/11 03:23:05;;;;;;;23.10;13.32;;;11.40;99.90;;;;;;6185767;23;20067;-83
2022/11/11 03:25:37;;;;;;;18.73;13.00;;;11.30;99.90;;;;;;6211243;23;20027;-84
2022/11/11 03:28:04;;;;;;;19.25;12.60;;;11.40;99.90;;;;;;6186935;23;20075;-84
2022/11/11 03:30:31;;;;;;;20.17;13.70;;;11.30;99.90;;;;;;6185765;23;20013;-87
2022/11/11 03:32:57;;;;;;;25.35;12.85;;;11.30;99.90;;;;;;6162197;23;20005;-88
2022/11/11 03:35:23;;;;;;;18.90;12.88;;;11.30;99.90;;;;;;6187500;23;20001;-88
2022/11/11 03:40:33;;;;;;;17.88;11.40;;;11.30;99.90;;;;;;6207224;23;20071;-88
2022/11/11 03:43:00;;;;;;;21.20;12.95;;;11.30;99.90;;;;;;6166562;23;20008;-88
2022/11/11 03:45:25;;;;;;;17.27;12.20;;;11.30;99.90;;;;;;6192157;23;20043;-85
2022/11/11 03:47:53;;;;;;;20.38;12.60;;;11.30;99.90;;;;;;6192775;23;20059;-88
2022/11/11 03:50:20;;;;;;;21.58;12.45;;;11.30;99.90;;;;;;6143719;23;20011;-88
2022/11/11 03:52:46;;;;;;;19.95;12.77;;;11.30;99.90;;;;;;6217628;23;20081;-88
2022/11/11 03:55:12;;;;;;;22.45;12.93;;;11.30;99.90;;;;;;6190939;23;20005;-89
2022/11/11 03:57:44;;;;;;;20.02;11.57;;;11.30;99.90;;;;;;6142744;23;20047;-89
2022/11/11 04:00:11;;;;;;;19.50;11.63;;;11.30;99.90;;;;;;6216795;23;20083;-88
2022/11/11 04:10:56;;;;;;;18.20;11.13;;;11.30;99.90;;;;;;6216460;23;20043;-86
2022/11/11 04:16:06;;;;;;;18.90;11.63;;;11.30;99.90;;;;;;6216442;23;20143;-86
2022/11/11 04:25:47;;;;;;;19.02;11.77;;;11.20;99.90;;;;;;6216368;23;20031;-84
2022/11/11 04:26:52;;;;;;;21.75;11.82;;;11.20;99.90;;;;;;6216093;23;20005;-85
2022/11/11 04:29:30;;;;;;;19.45;11.73;;;11.20;99.90;;;;;;6214455;23;20009;-84
2022/11/11 04:34:42;;;;;;;16.80;11.10;;;11.20;99.90;;;;;;6216230;23;20035;-84
2022/11/11 04:37:09;;;;;;;17.48;11.52;;;11.20;99.90;;;;;;6216738;23;19997;-88
2022/11/11 04:42:19;;;;;;;15.50;10.77;;;11.20;99.90;;;;;;6194381;23;20051;-87
2022/11/11 04:47:29;;;;;;;17.90;11.40;;;11.20;99.90;;;;;;6195140;23;20081;-87
2022/11/11 04:49:55;;;;;;;21.02;11.65;;;11.30;99.90;;;;;;6141040;23;20421;-88
2022/11/11 04:57:49;;;;;;;18.15;11.32;;;11.30;99.90;;;;;;6194945;23;20443;-87
2022/11/11 05:00:17;;;;;;;18.23;11.38;;;11.30;99.90;;;;;;6166072;23;20004;-86
2022/11/11 05:08:54;;;;;;;18.00;11.23;;;11.20;99.90;;;;;;6217204;23;20028;-87
2022/11/11 05:10:58;;;;;;;19.08;10.77;;;11.20;99.90;;;;;;6196180;23;20063;-87
2022/11/11 05:21:46;;;;;;;21.65;12.25;;;11.20;99.90;;;;;;6219410;23;20039;-87
2022/11/11 05:27:06;;;;;;;19.38;11.45;;;11.10;99.90;;;;;;6139267;23;20014;-87
2022/11/11 05:29:32;;;;;;;16.42;10.40;;;11.10;99.90;;;;;;6218624;23;20008;-87
2022/11/11 05:32:35;;;;;;;18.45;11.45;;;11.10;99.90;;;;;;6217152;23;20008;-87
2022/11/11 05:35:01;;;;;;;18.45;10.13;;;11.10;99.90;;;;;;6192299;23;20012;-87
2022/11/11 05:37:28;;;;;;;20.45;10.27;;;11.10;99.90;;;;;;6192591;23;20013;-87
2022/11/11 05:39:53;;;;;;;15.52;10.02;;;11.10;99.90;;;;;;6191722;23;20119;-87
2022/11/11 05:42:19;;;;;;;16.30;10.63;;;11.00;99.90;;;;;;6191607;23;20001;-87
2022/11/11 05:44:45;;;;;;;15.00;10.10;;;11.00;99.90;;;;;;6190801;23;20036;-84
2022/11/11 05:47:11;;;;;;;15.57;10.02;;;11.00;99.90;;;;;;6189664;23;20001;-84
2022/11/11 05:49:36;;;;;;;18.88;9.90;;;11.10;99.90;;;;;;6190649;23;20043;-84
2022/11/11 05:52:03;;;;;;;19.92;10.90;;;11.00;99.90;;;;;;6216252;23;20332;-84
2022/11/11 05:54:29;;;;;;;16.42;10.13;;;11.00;99.90;;;;;;6179241;23;20014;-80
2022/11/11 05:56:55;;;;;;;17.88;10.95;;;11.00;99.90;;;;;;6179711;23;20006;-81
2022/11/11 05:59:21;;;;;;;16.30;10.45;;;11.00;99.90;;;;;;6154940;23;20006;-81
2022/11/11 06:01:46;;;;;;;22.40;10.35;;;11.00;99.90;;;;;;6157083;23;20089;-83
2022/11/11 06:04:12;;;;;;;20.13;11.15;;;10.90;99.90;;;;;;6155543;23;20056;-83
2022/11/11 06:06:38;;;;;;;19.65;10.98;;;10.90;99.90;;;;;;6155726;23;20333;-83
2022/11/11 06:09:04;;;;;;;18.15;10.43;;;10.90;99.90;;;;;;6180342;23;20008;-84
2022/11/11 06:11:30;;;;;;;25.80;12.88;;;10.90;99.90;;;;;;6154520;23;20384;-84
2022/11/11 06:13:56;;;;;;;16.38;10.52;;;10.80;99.90;;;;;;6153932;23;20341;-82
2022/11/11 06:16:22;;;;;;;20.23;11.13;;;10.80;99.90;;;;;;6154105;23;20013;-85
2022/11/11 06:18:49;;;;;;;22.80;11.73;;;10.80;99.90;;;;;;6153308;23;20187;-85
2022/11/11 06:21:15;;;;;;;21.00;13.00;;;10.80;99.90;;;;;;6154369;23;20020;-84
2022/11/11 06:23:42;;;;;;;20.70;11.77;;;10.70;99.90;;;;;;6155845;23;20012;-84
2022/11/11 06:26:12;;;;;;;22.02;13.45;;;10.70;99.90;;;;;;6154627;23;20006;-84
2022/11/11 06:28:50;;;;;;;20.92;13.13;;;10.70;99.90;;;;;;6157777;23;20024;-85
2022/11/11 06:31:24;;;;;;;19.95;12.27;;;10.70;99.90;;;;;;6153184;23;20006;-84
2022/11/11 06:33:50;;;;;;;18.35;12.13;;;10.70;99.90;;;;;;6156641;23;20093;-79
2022/11/11 06:36:18;;;;;;;22.10;13.00;;;10.70;99.90;;;;;;6155924;23;20006;-80
2022/11/11 06:38:45;;;;;;;20.67;12.63;;;10.70;99.90;;;;;;6153205;23;20009;-80
2022/11/11 06:41:12;;;;;;;22.20;12.30;;;10.70;99.90;;;;;;6152764;23;20009;-80
2022/11/11 06:43:39;;;;;;;19.85;13.50;;;10.70;99.90;;;;;;6152939;23;20021;-80
2022/11/11 06:46:05;;;;;;;20.08;13.80;;;10.70;99.90;;;;;;6154292;23;19997;-80
2022/11/11 06:48:31;;;;;;;22.35;14.23;;;10.60;99.90;;;;;;6155337;23;20005;-80
2022/11/11 06:51:05;;;;;;;22.67;14.85;;;10.60;99.90;;;;;;6155301;23;20325;-80
2022/11/11 06:53:31;;;;;;;26.35;14.30;;;10.60;99.90;;;;;;6154409;23;20012;-80
2022/11/11 06:55:57;;;;;;;23.38;13.93;;;10.60;99.90;;;;;;6128667;23;20017;-80
2022/11/11 06:58:23;;;;;;;21.75;14.68;;;10.50;99.90;;;;;;6154402;23;20028;-80
2022/11/11 07:00:49;;;;;;;20.63;14.82;;;10.50;99.90;;;;;;6129123;23;20092;-80
2022/11/11 07:03:18;;;;;;;23.65;15.80;;;10.50;99.90;;;;;;6129775;23;20475;-80
2022/11/11 07:05:44;;;;;;;23.20;14.43;;;10.40;99.90;;;;;;6156019;23;20426;-80
2022/11/11 07:08:16;;;;;;;23.65;14.02;;;10.40;99.90;;;;;;6129894;23;20400;-82
2022/11/11 07:10:45;;;;;;;25.00;15.95;;;10.30;99.90;;;;;;6130644;23;20499;-82
2022/11/11 07:13:12;;;;;;;22.88;14.80;;;10.30;99.90;;;;;;6130467;23;19997;-82
2022/11/11 07:15:37;;;;;;;20.33;14.25;;;10.30;99.90;;;;;;6130442;23;20060;-82
2022/11/11 07:18:03;;;;;;;22.77;14.93;;;10.20;99.90;;;;;;6156517;23;20002;-82
2022/11/11 07:20:29;;;;;;;22.23;14.75;;;10.20;99.90;;;;;;6154924;23;20005;-82
2022/11/11 07:22:55;;;;;;;23.73;15.80;;;10.20;99.90;;;;;;6130715;23;20085;-80
2022/11/11 07:25:21;;;;;;;23.10;15.32;;;10.20;99.90;;;;;;6130723;23;20044;-80
2022/11/11 07:27:47;;;;;;;24.10;16.75;;;10.20;99.90;;;;;;6106069;23;20013;-80
2022/11/11 07:30:13;;;;;;;25.20;16.63;;;10.10;99.90;;;;;;6156573;23;20002;-80
2022/11/11 07:32:46;;;;;;;26.80;17.48;;;10.10;99.90;;;;;;6156501;23;20009;-80
2022/11/11 07:35:13;;;;;;;32.33;16.55;;;10.10;99.90;;;;;;6130234;23;20014;-80
2022/11/11 07:37:39;;;;;;;26.42;16.92;;;10.00;99.90;;;;;;6130250;23;20013;-80
2022/11/11 07:40:05;;;;;;;30.17;16.65;;;10.00;99.90;;;;;;6156445;23;20005;-84
2022/11/11 07:42:31;;;;;;;24.13;15.98;;;9.90;99.90;;;;;;6130198;23;20013;-84
2022/11/11 07:44:57;;;;;;;23.23;16.35;;;9.90;99.90;;;;;;6154840;23;20084;-85
2022/11/11 07:47:22;;;;;;;25.63;15.38;;;9.90;99.90;;;;;;6129809;23;20085;-85
2022/11/11 07:49:48;;;;;;;22.35;14.10;;;9.90;99.90;;;;;;6130053;23;20009;-85
2022/11/11 07:52:14;;;;;;;24.45;15.70;;;9.90;99.90;;;;;;6129769;23;20001;-84
2022/11/11 07:54:39;;;;;;;22.50;15.10;;;9.90;99.90;;;;;;6170853;23;20456;-84
2022/11/11 07:57:06;;;;;;;25.23;15.80;;;9.90;99.90;;;;;;6159812;23;20064;-82
2022/11/11 07:59:32;;;;;;;25.10;15.95;;;9.90;99.90;;;;;;6185974;23;20056;-82
2022/11/11 08:01:58;;;;;;;25.02;16.00;;;9.90;99.90;;;;;;6159625;23;20333;-82
2022/11/11 08:04:24;;;;;;;25.15;16.02;;;9.90;99.90;;;;;;6159491;23;20013;-82
2022/11/11 08:06:49;;;;;;;23.67;15.70;;;9.90;99.90;;;;;;6159610;23;20478;-82
2022/11/11 08:09:15;;;;;;;24.50;15.48;;;9.90;99.90;;;;;;6159625;23;20332;-81
2022/11/11 08:14:25;;;;;;;25.48;15.63;;;9.90;99.90;;;;;;6186601;23;20348;-82
2022/11/11 08:16:52;;;;;;;22.65;14.15;;;10.00;99.90;;;;;;6160203;23;20009;-83
2022/11/11 08:19:17;;;;;;;26.65;14.85;;;9.90;99.90;;;;;;6160431;23;20425;-82
2022/11/11 08:21:43;;;;;;;23.38;13.88;;;9.90;99.90;;;;;;6159606;23;20005;-82
2022/11/11 08:24:09;;;;;;;24.10;13.95;;;9.90;99.90;;;;;;6184065;23;20063;-83
2022/11/11 08:26:35;;;;;;;20.77;13.18;;;9.90;99.90;;;;;;6159686;23;20008;-83
2022/11/11 08:29:01;;;;;;;18.88;12.30;;;9.90;99.90;;;;;;6186198;23;19997;-83
2022/11/11 08:31:26;;;;;;;23.58;12.55;;;9.90;99.90;;;;;;6159521;23;20436;-82
2022/11/11 08:33:52;;;;;;;19.10;11.57;;;9.90;99.90;;;;;;6159023;23;20084;-82
2022/11/11 08:36:18;;;;;;;25.85;12.68;;;9.90;99.90;;;;;;6159500;23;20548;-82
2022/11/11 08:38:44;;;;;;;18.88;11.43;;;9.90;99.90;;;;;;6159028;23;20048;-82
2022/11/11 08:41:09;;;;;;;16.05;10.35;;;9.90;99.90;;;;;;6159489;23;20009;-82
2022/11/11 08:43:35;;;;;;;18.10;11.45;;;9.90;99.90;;;;;;6159011;23;20012;-82
2022/11/11 08:46:05;;;;;;;16.45;10.50;;;9.90;99.90;;;;;;6159324;23;20001;-81
2022/11/11 08:48:31;;;;;;;17.87;10.47;;;9.90;99.90;;;;;;6159902;23;20059;-83
2022/11/11 08:50:58;;;;;;;17.23;10.77;;;9.90;99.90;;;;;;6159212;23;20239;-83
2022/11/11 08:53:25;;;;;;;17.40;10.65;;;9.90;99.90;;;;;;6182438;23;20037;-83
2022/11/11 08:55:50;;;;;;;17.40;10.50;;;9.90;99.90;;;;;;6155746;23;20056;-82
2022/11/11 08:58:16;;;;;;;18.80;10.73;;;9.90;99.90;;;;;;6129829;23;20013;-83
2022/11/11 09:00:42;;;;;;;13.30;9.45;;;9.90;99.90;;;;;;6154170;23;20451;-83
2022/11/11 09:03:10;;;;;;;15.00;10.82;;;9.90;99.90;;;;;;6129515;23;20017;-82
2022/11/11 09:05:38;;;;;;;18.20;10.63;;;9.90;99.90;;;;;;6155960;23;20064;-82
2022/11/11 09:08:06;;;;;;;18.95;10.98;;;9.90;99.90;;;;;;6129881;23;20120;-82
2022/11/11 09:10:33;;;;;;;18.70;9.73;;;9.90;99.90;;;;;;6129770;23;20057;-82
2022/11/11 09:12:59;;;;;;;16.60;9.80;;;9.90;99.90;;;;;;6104570;23;20029;-82
2022/11/11 09:15:25;;;;;;;16.90;9.75;;;9.90;99.90;;;;;;6128941;23;20028;-82
2022/11/11 09:17:51;;;;;;;14.60;9.55;;;9.90;99.90;;;;;;6155058;23;20014;-82
2022/11/11 09:20:18;;;;;;;15.90;9.07;;;9.90;99.90;;;;;;6155616;23;20009;-87
2022/11/11 09:22:45;;;;;;;15.02;8.75;;;10.00;99.90;;;;;;6155798;23;20002;-84
2022/11/11 09:25:11;;;;;;;14.70;8.95;;;10.00;99.90;;;;;;6154445;23;20329;-84
2022/11/11 09:27:37;;;;;;;14.00;9.05;;;10.10;99.90;;;;;;6104436;23;20014;-83
2022/11/11 09:30:04;;;;;;;15.55;9.20;;;10.20;99.90;;;;;;6129333;23;20045;-84
2022/11/11 09:32:30;;;;;;;17.88;9.30;;;10.20;99.90;;;;;;6104029;23;20002;-85
2022/11/11 09:34:55;;;;;;;12.60;8.02;;;10.30;99.90;;;;;;6128954;23;20018;-85
2022/11/11 09:37:21;;;;;;;12.73;7.70;;;10.30;99.90;;;;;;6105862;23;20009;-82
2022/11/11 09:39:47;;;;;;;14.43;9.00;;;10.30;99.90;;;;;;6156252;23;20076;-83
2022/11/11 09:42:23;;;;;;;14.10;7.95;;;10.40;99.90;;;;;;6155369;23;20017;-82
2022/11/11 09:45:26;;;;;;;15.00;8.20;;;10.40;99.90;;;;;;6155741;23;20125;-82
2022/11/11 09:48:16;;;;;;;12.52;8.00;;;10.50;99.90;;;;;;6155902;23;19998;-82
2022/11/11 09:50:52;;;;;;;13.85;7.68;;;10.50;99.90;;;;;;6128828;23;20013;-82
2022/11/11 09:53:36;;;;;;;12.82;7.57;;;10.60;99.90;;;;;;6156872;23;20010;-81
2022/11/11 09:56:08;;;;;;;11.25;7.35;;;10.60;99.90;;;;;;6157042;23;20394;-82
2022/11/11 09:58:43;;;;;;;11.40;7.43;;;10.70;99.90;;;;;;6130871;23;20084;-82
2022/11/11 10:01:17;;;;;;;16.27;8.15;;;10.70;99.90;;;;;;6156687;23;19998;-82
2022/11/11 10:03:53;;;;;;;12.60;7.57;;;10.80;99.90;;;;;;6156945;23;20429;-82
2022/11/11 10:06:25;;;;;;;14.18;7.90;;;10.90;99.90;;;;;;6131045;23;20480;-82
2022/11/11 10:09:06;;;;;;;10.48;7.20;;;10.90;99.90;;;;;;6156688;23;20329;-82
2022/11/11 10:11:44;;;;;;;14.18;7.75;;;11.00;99.90;;;;;;6131233;23;20009;-84
2022/11/11 10:14:10;;;;;;;13.00;7.10;;;11.10;99.90;;;;;;6130950;23;20005;-84
2022/11/11 10:17:01;;;;;;;11.45;6.70;;;11.10;99.90;;;;;;6106518;23;20056;-84
2022/11/11 10:19:34;;;;;;;10.75;7.25;;;11.20;99.90;;;;;;6156948;23;20002;-84
2022/11/11 10:22:05;;;;;;;12.27;6.75;;;11.30;99.90;;;;;;6156997;23;20421;-85
2022/11/11 10:24:44;;;;;;;12.07;6.78;;;11.40;99.90;;;;;;6131074;23;20006;-84
2022/11/11 10:27:17;;;;;;;10.75;6.68;;;11.50;99.90;;;;;;6131190;23;20006;-83
2022/11/11 10:29:44;;;;;;;10.10;5.80;;;11.50;99.90;;;;;;6157130;23;20068;-82
2022/11/11 10:32:31;;;;;;;9.70;6.22;;;11.60;99.90;;;;;;6131021;23;20073;-82
2022/11/11 10:35:10;;;;;;;9.93;6.30;;;11.60;99.90;;;;;;6131054;23;20366;-82
2022/11/11 10:37:40;;;;;;;12.82;7.00;;;11.70;99.90;;;;;;6130954;23;20009;-82
2022/11/11 10:40:24;;;;;;;9.88;6.13;;;11.70;99.90;;;;;;6130789;23;20020;-82
2022/11/11 10:42:50;;;;;;;9.45;6.43;;;11.80;99.90;;;;;;6130745;23;20013;-82
2022/11/11 10:45:49;;;;;;;11.20;6.25;;;11.90;99.90;;;;;;6106757;23;20381;-82
2022/11/11 10:48:24;;;;;;;9.32;5.82;;;11.90;99.90;;;;;;6157062;23;20002;-82
2022/11/11 10:50:53;;;;;;;9.85;6.20;;;12.00;99.90;;;;;;6157106;23;19998;-82
2022/11/11 10:53:40;;;;;;;9.68;5.95;;;12.10;99.90;;;;;;6156974;23;19998;-82
2022/11/11 10:56:24;;;;;;;14.25;6.57;;;12.10;99.90;;;;;;6164393;23;20069;-82
2022/11/11 10:59:14;;;;;;;10.93;5.85;;;12.20;99.90;;;;;;6156800;23;20029;-82
2022/11/11 11:01:49;;;;;;;9.07;6.00;;;12.30;99.90;;;;;;6160097;23;20044;-80
2022/11/11 11:04:44;;;;;;;8.57;5.50;;;12.40;99.90;;;;;;6133299;23;20029;-79
2022/11/11 11:07:15;;;;;;;9.15;5.85;;;12.50;99.90;;;;;;6118039;23;20012;-80
2022/11/11 11:10:07;;;;;;;8.82;5.90;;;12.60;99.90;;;;;;6158512;23;20454;-79
2022/11/11 11:12:59;;;;;;;9.48;4.68;;;12.60;99.90;;;;;;6130494;23;20005;-80
2022/11/11 11:15:27;;;;;;;10.30;5.28;;;12.70;99.90;;;;;;6152832;23;20009;-79
2022/11/11 11:18:10;;;;;;;11.15;5.60;;;12.80;99.90;;;;;;6156294;23;20048;-82
2022/11/11 11:20:36;;;;;;;9.73;5.18;;;12.90;99.90;;;;;;6156859;23;20004;-82
2022/11/11 11:23:02;;;;;;;9.38;5.35;;;12.90;99.90;;;;;;6106430;23;20002;-82
2022/11/11 11:25:34;;;;;;;8.13;5.22;;;13.00;99.90;;;;;;6130413;23;20041;-82
2022/11/11 11:28:11;;;;;;;13.23;5.32;;;13.00;99.90;;;;;;6130469;23;20006;-82
2022/11/11 11:30:37;;;;;;;10.93;5.43;;;13.10;99.90;;;;;;6130474;23;20010;-82
2022/11/11 11:33:08;;;;;;;8.40;5.57;;;13.10;99.90;;;;;;6156534;23;20052;-84
2022/11/11 11:35:42;;;;;;;;;;;13.20;99.90;;;;;;6106687;23;20016;-85
2022/11/11 11:38:10;;;;;;;7.40;4.60;;;13.20;99.90;;;;;;6156282;23;19991;-84
2022/11/11 11:40:57;;;;;;;8.77;4.53;;;13.20;99.90;;;;;;6156341;23;20002;-85
2022/11/11 11:43:33;;;;;;;9.20;4.90;;;13.20;99.90;;;;;;6156715;23;20421;-85
2022/11/11 11:46:04;;;;;;;7.82;5.05;;;13.30;99.90;;;;;;6130541;23;20124;-84
2022/11/11 11:48:38;;;;;;;;;;;13.30;99.90;;;;;;6131011;23;19998;-85
2022/11/11 11:51:31;;;;;;;9.55;4.80;;;13.30;99.90;;;;;;6154586;23;20300;-82
2022/11/11 11:54:25;;;;;;;10.57;4.75;;;13.20;99.90;;;;;;6156267;23;20052;-82
2022/11/11 11:56:55;;;;;;;10.75;4.63;;;13.20;99.90;;;;;;6156971;23;20014;-82
2022/11/11 11:59:36;;;;;;;7.88;5.03;;;13.30;99.90;;;;;;6156399;23;20421;-82
2022/11/11 12:02:02;;;;;;;;;;;13.30;99.90;;;;;;6155799;23;20488;-83
2022/11/11 12:04:39;;;;;;;9.10;4.90;;;13.30;99.90;;;;;;6155388;23;19904;-83
2022/11/11 12:07:24;;;;;;;8.18;4.22;;;13.30;99.90;;;;;;6156322;23;20125;-83
2022/11/11 12:09:49;;;;;;;9.00;4.60;;;13.40;99.90;;;;;;6156134;23;20024;-83
2022/11/11 12:12:53;;;;;;;8.68;4.65;;;13.40;99.90;;;;;;6130695;23;20416;-82
2022/11/11 12:15:38;;;;;;;9.98;4.47;;;13.40;99.90;;;;;;6154363;23;20010;-82
2022/11/11 12:18:48;;;;;;;9.82;4.30;;;13.40;99.90;;;;;;6130601;23;20005;-82
2022/11/11 12:21:15;;;;;;;8.73;4.05;;;13.40;99.90;;;;;;6066553;23;20010;-83
2022/11/11 12:23:59;;;;;;;7.65;4.22;;;13.40;99.90;;;;;;6130725;23;20328;-83
2022/11/11 12:26:46;;;;;;;7.43;4.05;;;13.50;99.90;;;;;;6158126;23;20005;-83
2022/11/11 12:29:21;;;;;;;6.60;4.00;;;13.50;99.90;;;;;;6157816;23;20009;-84
2022/11/11 12:31:52;;;;;;;8.73;3.70;;;13.60;99.90;;;;;;6162115;23;20009;-84
2022/11/11 12:34:43;;;;;;;6.45;3.90;;;13.60;99.90;;;;;;6140935;23;20005;-82
2022/11/11 12:37:32;;;;;;;6.85;4.03;;;13.70;99.90;;;;;;6137858;23;20010;-83
2022/11/11 12:40:17;;;;;;;7.90;3.80;;;13.70;99.90;;;;;;6135198;23;20005;-79
2022/11/11 12:42:53;;;;;;;5.97;3.58;;;13.70;99.90;;;;;;6127729;23;20013;-79
2022/11/11 12:45:29;;;;;;;6.68;3.70;;;13.70;99.90;;;;;;6155121;23;20006;-79
2022/11/11 12:48:20;;;;;;;9.30;3.97;;;13.80;99.90;;;;;;6153025;23;19998;-79
2022/11/11 12:51:07;;;;;;;5.60;3.60;;;13.80;99.90;;;;;;6137589;23;20006;-79
2022/11/11 12:53:38;;;;;;;6.93;3.40;;;13.90;99.90;;;;;;6128940;23;20010;-79
2022/11/11 12:56:21;;;;;;;10.00;3.53;;;13.90;99.90;;;;;;6157878;23;20088;-78
2022/11/11 12:58:50;;;;;;;6.68;3.33;;;14.00;99.90;;;;;;6129138;23;20154;-84
2022/11/11 13:01:40;;;;;;;5.68;3.28;;;14.00;99.90;;;;;;6129668;23;20006;-85
2022/11/11 13:04:44;;;;;;;6.60;3.60;;;14.00;99.90;;;;;;6156329;23;20012;-85
2022/11/11 13:07:36;;;;;;;7.78;3.92;;;14.00;99.90;;;;;;6155169;23;20051;-85
2022/11/11 13:10:24;;;;;;;7.57;3.72;;;14.10;99.90;;;;;;6130135;23;20334;-85
2022/11/11 13:13:17;;;;;;;5.07;3.80;;;14.10;99.90;;;;;;6129746;23;20414;-85
2022/11/11 13:15:43;;;;;;;6.88;3.53;;;14.10;99.90;;;;;;6155880;23;20001;-83
2022/11/11 13:18:22;;;;;;;7.53;3.90;;;14.20;99.90;;;;;;6129614;23;20333;-83
2022/11/11 13:20:55;;;;;;;6.55;3.70;;;14.20;99.90;;;;;;6129564;23;20005;-82
2022/11/11 13:23:21;;;;;;;6.20;3.25;;;14.30;99.90;;;;;;6155670;23;19997;-82
2022/11/11 13:25:51;;;;;;;7.20;3.30;;;14.30;99.90;;;;;;6129800;23;20015;-82
2022/11/11 13:28:36;;;;;;;6.18;2.85;;;14.30;99.90;;;;;;6131230;23;20009;-82
2022/11/11 13:31:23;;;;;;;7.53;2.92;;;14.40;99.90;;;;;;6131780;23;20002;-82
2022/11/11 13:33:53;;;;;;;5.15;2.80;;;14.40;99.90;;;;;;6131746;23;20056;-82
2022/11/11 13:36:23;;;;;;;6.00;3.13;;;14.40;99.90;;;;;;6158044;23;20056;-81
2022/11/11 13:39:02;;;;;;;3.95;2.35;;;14.40;99.90;;;;;;6157735;23;20345;-81
2022/11/11 13:41:31;;;;;;;10.45;2.65;;;14.50;99.90;;;;;;6131521;23;20005;-82
2022/11/11 13:44:01;;;;;;;5.57;2.47;;;14.50;99.90;;;;;;6131330;23;20044;-81
2022/11/11 13:46:27;;;;;;;5.17;2.67;;;14.60;99.90;;;;;;6158277;23;20006;-81
2022/11/11 13:48:54;;;;;;;5.78;2.33;;;14.60;99.90;;;;;;6166834;23;20012;-82
2022/11/11 13:51:35;;;;;;;4.25;2.72;;;14.60;99.90;;;;;;6141622;23;20016;-81
2022/11/11 13:54:06;;;;;;;4.13;2.15;;;14.70;99.90;;;;;;6168303;23;19997;-81
2022/11/11 13:56:31;;;;;;;4.72;2.20;;;14.70;99.90;;;;;;6166938;23;20064;-81
2022/11/11 13:58:58;;;;;;;5.35;2.35;;;14.70;99.90;;;;;;6166111;23;20001;-81
2022/11/11 14:01:31;;;;;;;5.20;2.50;;;14.70;99.90;;;;;;6165843;23;20002;-81
2022/11/11 14:04:00;;;;;;;6.45;2.15;;;14.80;99.70;;;;;;6136064;23;20310;-84
2022/11/11 14:06:47;;;;;;;5.70;2.50;;;14.80;99.50;;;;;;6131537;23;19997;-84
2022/11/11 14:09:52;;;;;;;5.07;2.17;;;14.80;99.20;;;;;;6157378;23;19997;-84
2022/11/11 14:12:33;;;;;;;5.18;2.55;;;14.70;99.30;;;;;;6131434;23;20020;-84
2022/11/11 14:14:58;;;;;;;4.45;2.38;;;14.70;99.20;;;;;;6157477;23;20386;-84
2022/11/11 14:17:26;;;;;;;4.63;2.55;;;14.70;99.30;;;;;;6131497;23;20012;-84